Twillingate, Canada
Current Conditions -  °F | °C
As of 1:16 AM on Friday 19 Dec 2014 (Local Time) from CYQX Reporting Station
Drizzle Drizzle  
Wind Chill: 35°   Ceiling: 100
Heat Index: 39°   Visibility: 0.12mi
Dew Point: 39°   Wind: 6mph
Humidity: 100%   Direction: 90°E
Pressure: 29.48"   Gusts: NA
Location:  49.66°N, 54.78°W
Report Text: CYQX 190416Z 09005KT 1/8SM R03/3000FT/D R13/2600FT/N -DZ FG VV001 04/04 A2948 RMK FG8 SLP989
Loading
Personal Weather Stations






























Interactive Weather Map New forecast layout! Learn more

10-Day Weather Forecast

Advertisements
Track Severe Weather on mobile